sensor_id;sensor_type;location;lat;lon;timestamp;P1;durP1;ratioP1;P2;durP2;ratioP2
17953;SDS011;9102;53.548;9.926;2023-07-22T00:00:30;11.02;;;7.18;;
17953;SDS011;9102;53.548;9.926;2023-07-22T00:02:56;12.98;;;7.40;;
17953;SDS011;9102;53.548;9.926;2023-07-22T00:05:23;10.65;;;7.15;;
17953;SDS011;9102;53.548;9.926;2023-07-22T00:07:50;11.48;;;7.03;;
17953;SDS011;9102;53.548;9.926;2023-07-22T00:10:17;10.80;;;7.15;;
17953;SDS011;9102;53.548;9.926;2023-07-22T00:12:44;11.77;;;7.18;;
17953;SDS011;9102;53.548;9.926;2023-07-22T00:15:12;16.73;;;7.68;;
17953;SDS011;9102;53.548;9.926;2023-07-22T00:17:39;10.68;;;6.97;;
17953;SDS011;9102;53.548;9.926;2023-07-22T00:20:07;11.18;;;7.22;;
17953;SDS011;9102;53.548;9.926;2023-07-22T00:22:36;12.77;;;7.50;;
17953;SDS011;9102;53.548;9.926;2023-07-22T00:25:05;13.95;;;7.40;;
17953;SDS011;9102;53.548;9.926;2023-07-22T00:27:35;15.75;;;8.18;;
17953;SDS011;9102;53.548;9.926;2023-07-22T00:30:02;12.30;;;7.65;;
17953;SDS011;9102;53.548;9.926;2023-07-22T00:32:31;12.48;;;7.63;;
17953;SDS011;9102;53.548;9.926;2023-07-22T00:34:58;15.38;;;8.10;;
17953;SDS011;9102;53.548;9.926;2023-07-22T00:37:25;12.35;;;8.15;;
17953;SDS011;9102;53.548;9.926;2023-07-22T00:39:52;13.50;;;8.60;;
17953;SDS011;9102;53.548;9.926;2023-07-22T00:42:20;15.45;;;8.45;;
17953;SDS011;9102;53.548;9.926;2023-07-22T00:44:46;13.55;;;8.82;;
17953;SDS011;9102;53.548;9.926;2023-07-22T00:47:13;13.90;;;7.93;;
17953;SDS011;9102;53.548;9.926;2023-07-22T00:49:42;13.02;;;8.20;;
17953;SDS011;9102;53.548;9.926;2023-07-22T00:52:09;15.95;;;8.50;;
17953;SDS011;9102;53.548;9.926;2023-07-22T00:54:36;15.00;;;8.05;;
17953;SDS011;9102;53.548;9.926;2023-07-22T00:57:03;14.57;;;8.18;;
17953;SDS011;9102;53.548;9.926;2023-07-22T00:59:30;16.42;;;8.85;;
17953;SDS011;9102;53.548;9.926;2023-07-22T01:01:58;15.15;;;8.38;;
17953;SDS011;9102;53.548;9.926;2023-07-22T01:04:25;15.90;;;8.70;;
17953;SDS011;9102;53.548;9.926;2023-07-22T01:06:53;14.55;;;8.88;;
17953;SDS011;9102;53.548;9.926;2023-07-22T01:09:21;14.18;;;8.32;;
17953;SDS011;9102;53.548;9.926;2023-07-22T01:11:48;14.82;;;8.93;;
17953;SDS011;9102;53.548;9.926;2023-07-22T01:14:15;13.32;;;8.32;;
17953;SDS011;9102;53.548;9.926;2023-07-22T01:16:42;15.63;;;8.43;;
17953;SDS011;9102;53.548;9.926;2023-07-22T01:19:10;17.50;;;9.23;;
17953;SDS011;9102;53.548;9.926;2023-07-22T01:21:39;16.05;;;8.38;;
17953;SDS011;9102;53.548;9.926;2023-07-22T01:24:09;15.32;;;8.95;;
17953;SDS011;9102;53.548;9.926;2023-07-22T01:26:36;15.60;;;8.40;;
17953;SDS011;9102;53.548;9.926;2023-07-22T01:29:04;16.30;;;8.35;;
17953;SDS011;9102;53.548;9.926;2023-07-22T01:31:31;14.80;;;8.38;;
17953;SDS011;9102;53.548;9.926;2023-07-22T01:34:00;18.17;;;8.93;;
17953;SDS011;9102;53.548;9.926;2023-07-22T01:36:27;14.73;;;8.27;;
17953;SDS011;9102;53.548;9.926;2023-07-22T01:38:54;14.88;;;7.47;;
17953;SDS011;9102;53.548;9.926;2023-07-22T01:41:22;14.95;;;8.88;;
17953;SDS011;9102;53.548;9.926;2023-07-22T01:43:49;13.70;;;7.95;;
17953;SDS011;9102;53.548;9.926;2023-07-22T01:46:16;14.18;;;8.40;;
17953;SDS011;9102;53.548;9.926;2023-07-22T01:48:43;18.65;;;8.75;;
17953;SDS011;9102;53.548;9.926;2023-07-22T01:51:09;16.42;;;8.10;;
17953;SDS011;9102;53.548;9.926;2023-07-22T01:53:37;15.45;;;8.38;;
17953;SDS011;9102;53.548;9.926;2023-07-22T01:56:03;16.80;;;8.07;;
17953;SDS011;9102;53.548;9.926;2023-07-22T01:58:32;20.20;;;8.15;;
17953;SDS011;9102;53.548;9.926;2023-07-22T02:00:59;14.73;;;7.70;;
17953;SDS011;9102;53.548;9.926;2023-07-22T02:03:26;15.90;;;8.40;;
17953;SDS011;9102;53.548;9.926;2023-07-22T02:05:53;18.67;;;8.25;;
17953;SDS011;9102;53.548;9.926;2023-07-22T02:08:26;14.30;;;7.22;;
17953;SDS011;9102;53.548;9.926;2023-07-22T02:10:53;16.70;;;8.90;;
17953;SDS011;9102;53.548;9.926;2023-07-22T02:13:20;18.65;;;8.32;;
17953;SDS011;9102;53.548;9.926;2023-07-22T02:15:48;15.88;;;8.18;;
17953;SDS011;9102;53.548;9.926;2023-07-22T02:18:15;15.38;;;8.05;;
17953;SDS011;9102;53.548;9.926;2023-07-22T02:20:42;17.20;;;8.10;;
17953;SDS011;9102;53.548;9.926;2023-07-22T02:23:09;15.95;;;8.48;;
17953;SDS011;9102;53.548;9.926;2023-07-22T02:25:36;18.98;;;8.05;;
17953;SDS011;9102;53.548;9.926;2023-07-22T02:28:03;13.57;;;7.90;;
17953;SDS011;9102;53.548;9.926;2023-07-22T02:30:30;18.77;;;8.60;;
17953;SDS011;9102;53.548;9.926;2023-07-22T02:33:01;22.65;;;8.63;;
17953;SDS011;9102;53.548;9.926;2023-07-22T02:35:28;18.98;;;8.95;;
17953;SDS011;9102;53.548;9.926;2023-07-22T02:37:55;18.45;;;9.15;;
17953;SDS011;9102;53.548;9.926;2023-07-22T02:40:21;18.17;;;8.85;;
17953;SDS011;9102;53.548;9.926;2023-07-22T02:42:48;18.52;;;9.35;;
17953;SDS011;9102;53.548;9.926;2023-07-22T02:45:15;18.38;;;8.40;;
17953;SDS011;9102;53.548;9.926;2023-07-22T02:47:42;17.70;;;9.13;;
17953;SDS011;9102;53.548;9.926;2023-07-22T02:50:10;17.10;;;8.85;;
17953;SDS011;9102;53.548;9.926;2023-07-22T02:52:37;18.33;;;8.35;;
17953;SDS011;9102;53.548;9.926;2023-07-22T02:55:05;23.38;;;8.80;;
17953;SDS011;9102;53.548;9.926;2023-07-22T02:57:33;18.45;;;8.77;;
17953;SDS011;9102;53.548;9.926;2023-07-22T03:00:00;20.63;;;9.23;;
17953;SDS011;9102;53.548;9.926;2023-07-22T03:02:32;16.98;;;8.93;;
17953;SDS011;9102;53.548;9.926;2023-07-22T03:04:59;20.20;;;9.10;;
17953;SDS011;9102;53.548;9.926;2023-07-22T03:07:27;21.45;;;9.63;;
17953;SDS011;9102;53.548;9.926;2023-07-22T03:09:54;18.05;;;9.73;;
17953;SDS011;9102;53.548;9.926;2023-07-22T03:12:21;19.70;;;8.95;;
17953;SDS011;9102;53.548;9.926;2023-07-22T03:14:47;17.52;;;8.73;;
17953;SDS011;9102;53.548;9.926;2023-07-22T03:17:14;19.10;;;8.65;;
17953;SDS011;9102;53.548;9.926;2023-07-22T03:19:42;16.52;;;8.40;;
17953;SDS011;9102;53.548;9.926;2023-07-22T03:22:09;19.10;;;8.50;;
17953;SDS011;9102;53.548;9.926;2023-07-22T03:24:37;15.75;;;9.00;;
17953;SDS011;9102;53.548;9.926;2023-07-22T03:27:03;18.15;;;8.55;;
17953;SDS011;9102;53.548;9.926;2023-07-22T03:29:31;17.30;;;8.20;;
17953;SDS011;9102;53.548;9.926;2023-07-22T03:31:58;17.23;;;8.15;;
17953;SDS011;9102;53.548;9.926;2023-07-22T03:34:25;14.23;;;7.50;;
17953;SDS011;9102;53.548;9.926;2023-07-22T03:36:52;20.42;;;8.48;;
17953;SDS011;9102;53.548;9.926;2023-07-22T03:39:19;15.93;;;8.20;;
17953;SDS011;9102;53.548;9.926;2023-07-22T03:41:48;17.88;;;7.82;;
17953;SDS011;9102;53.548;9.926;2023-07-22T03:44:15;15.95;;;8.40;;
17953;SDS011;9102;53.548;9.926;2023-07-22T03:46:41;14.70;;;8.25;;
17953;SDS011;9102;53.548;9.926;2023-07-22T03:49:08;13.18;;;6.97;;
17953;SDS011;9102;53.548;9.926;2023-07-22T03:51:35;16.15;;;7.63;;
17953;SDS011;9102;53.548;9.926;2023-07-22T03:54:02;17.92;;;7.78;;
17953;SDS011;9102;53.548;9.926;2023-07-22T03:56:29;15.20;;;7.55;;
17953;SDS011;9102;53.548;9.926;2023-07-22T03:58:57;15.73;;;8.48;;
17953;SDS011;9102;53.548;9.926;2023-07-22T04:01:24;14.55;;;7.75;;
17953;SDS011;9102;53.548;9.926;2023-07-22T04:03:51;14.57;;;7.07;;
17953;SDS011;9102;53.548;9.926;2023-07-22T04:06:17;13.23;;;7.50;;
17953;SDS011;9102;53.548;9.926;2023-07-22T04:08:44;16.00;;;7.45;;
17953;SDS011;9102;53.548;9.926;2023-07-22T04:11:11;17.92;;;7.82;;
17953;SDS011;9102;53.548;9.926;2023-07-22T04:13:39;16.42;;;7.63;;
17953;SDS011;9102;53.548;9.926;2023-07-22T04:16:07;15.60;;;6.93;;
17953;SDS011;9102;53.548;9.926;2023-07-22T04:18:34;12.88;;;7.50;;
17953;SDS011;9102;53.548;9.926;2023-07-22T04:21:00;15.25;;;7.07;;
17953;SDS011;9102;53.548;9.926;2023-07-22T04:23:27;13.05;;;7.57;;
17953;SDS011;9102;53.548;9.926;2023-07-22T04:25:54;16.25;;;6.97;;
17953;SDS011;9102;53.548;9.926;2023-07-22T04:28:21;17.90;;;7.63;;
17953;SDS011;9102;53.548;9.926;2023-07-22T04:30:54;13.35;;;6.60;;
17953;SDS011;9102;53.548;9.926;2023-07-22T04:33:24;12.32;;;6.53;;
17953;SDS011;9102;53.548;9.926;2023-07-22T04:35:53;17.98;;;6.53;;
17953;SDS011;9102;53.548;9.926;2023-07-22T04:38:20;12.57;;;6.47;;
17953;SDS011;9102;53.548;9.926;2023-07-22T04:40:47;12.15;;;7.15;;
17953;SDS011;9102;53.548;9.926;2023-07-22T04:43:14;12.15;;;6.80;;
17953;SDS011;9102;53.548;9.926;2023-07-22T04:45:43;13.88;;;7.07;;
17953;SDS011;9102;53.548;9.926;2023-07-22T04:48:12;10.48;;;6.10;;
17953;SDS011;9102;53.548;9.926;2023-07-22T04:50:42;10.50;;;6.07;;
17953;SDS011;9102;53.548;9.926;2023-07-22T04:53:10;15.15;;;6.85;;
17953;SDS011;9102;53.548;9.926;2023-07-22T04:55:38;15.18;;;6.60;;
17953;SDS011;9102;53.548;9.926;2023-07-22T04:58:05;13.80;;;6.20;;
17953;SDS011;9102;53.548;9.926;2023-07-22T05:00:32;13.82;;;6.75;;
17953;SDS011;9102;53.548;9.926;2023-07-22T05:02:59;13.90;;;6.15;;
17953;SDS011;9102;53.548;9.926;2023-07-22T05:05:26;13.95;;;6.20;;
17953;SDS011;9102;53.548;9.926;2023-07-22T05:07:54;16.10;;;6.00;;
17953;SDS011;9102;53.548;9.926;2023-07-22T05:10:22;12.68;;;6.05;;
17953;SDS011;9102;53.548;9.926;2023-07-22T05:12:49;13.65;;;6.07;;
17953;SDS011;9102;53.548;9.926;2023-07-22T05:15:15;10.80;;;6.13;;
17953;SDS011;9102;53.548;9.926;2023-07-22T05:17:42;11.50;;;5.50;;
17953;SDS011;9102;53.548;9.926;2023-07-22T05:20:09;14.07;;;5.40;;
17953;SDS011;9102;53.548;9.926;2023-07-22T05:22:37;16.17;;;5.82;;
17953;SDS011;9102;53.548;9.926;2023-07-22T05:25:07;13.35;;;5.50;;
17953;SDS011;9102;53.548;9.926;2023-07-22T05:27:35;12.20;;;5.53;;
17953;SDS011;9102;53.548;9.926;2023-07-22T05:30:02;11.27;;;5.72;;
17953;SDS011;9102;53.548;9.926;2023-07-22T05:32:29;13.65;;;5.68;;
17953;SDS011;9102;53.548;9.926;2023-07-22T05:34:56;13.10;;;6.35;;
17953;SDS011;9102;53.548;9.926;2023-07-22T05:37:23;10.60;;;5.47;;
17953;SDS011;9102;53.548;9.926;2023-07-22T05:39:50;10.75;;;5.60;;
17953;SDS011;9102;53.548;9.926;2023-07-22T05:42:19;12.57;;;6.13;;
17953;SDS011;9102;53.548;9.926;2023-07-22T05:44:46;11.88;;;5.50;;
17953;SDS011;9102;53.548;9.926;2023-07-22T05:47:13;10.40;;;5.85;;
17953;SDS011;9102;53.548;9.926;2023-07-22T05:49:40;13.85;;;5.40;;
17953;SDS011;9102;53.548;9.926;2023-07-22T05:52:07;9.85;;;5.40;;
17953;SDS011;9102;53.548;9.926;2023-07-22T05:54:34;11.23;;;4.90;;
17953;SDS011;9102;53.548;9.926;2023-07-22T05:57:01;10.63;;;5.32;;
17953;SDS011;9102;53.548;9.926;2023-07-22T05:59:30;10.07;;;5.07;;
17953;SDS011;9102;53.548;9.926;2023-07-22T06:01:57;11.05;;;5.70;;
17953;SDS011;9102;53.548;9.926;2023-07-22T06:04:24;10.38;;;4.82;;
17953;SDS011;9102;53.548;9.926;2023-07-22T06:06:51;11.43;;;5.32;;
17953;SDS011;9102;53.548;9.926;2023-07-22T06:09:18;9.55;;;5.00;;
17953;SDS011;9102;53.548;9.926;2023-07-22T06:11:46;7.63;;;4.40;;
17953;SDS011;9102;53.548;9.926;2023-07-22T06:14:13;8.85;;;4.32;;
17953;SDS011;9102;53.548;9.926;2023-07-22T06:16:41;10.70;;;4.05;;
17953;SDS011;9102;53.548;9.926;2023-07-22T06:19:08;7.88;;;4.20;;
17953;SDS011;9102;53.548;9.926;2023-07-22T06:21:35;10.35;;;5.25;;
17953;SDS011;9102;53.548;9.926;2023-07-22T06:24:01;10.63;;;4.90;;
17953;SDS011;9102;53.548;9.926;2023-07-22T06:26:28;8.68;;;4.45;;
17953;SDS011;9102;53.548;9.926;2023-07-22T06:28:55;9.52;;;3.78;;
17953;SDS011;9102;53.548;9.926;2023-07-22T06:31:22;7.28;;;4.47;;
17953;SDS011;9102;53.548;9.926;2023-07-22T06:33:50;7.68;;;4.20;;
17953;SDS011;9102;53.548;9.926;2023-07-22T06:36:17;10.82;;;4.32;;
17953;SDS011;9102;53.548;9.926;2023-07-22T06:38:44;10.02;;;4.70;;
17953;SDS011;9102;53.548;9.926;2023-07-22T06:41:11;8.25;;;3.65;;
17953;SDS011;9102;53.548;9.926;2023-07-22T06:43:38;9.02;;;4.63;;
17953;SDS011;9102;53.548;9.926;2023-07-22T06:46:05;7.32;;;4.07;;
17953;SDS011;9102;53.548;9.926;2023-07-22T06:48:32;8.20;;;4.45;;
17953;SDS011;9102;53.548;9.926;2023-07-22T06:51:00;8.20;;;4.05;;
17953;SDS011;9102;53.548;9.926;2023-07-22T06:53:27;5.47;;;3.50;;
17953;SDS011;9102;53.548;9.926;2023-07-22T06:55:54;6.25;;;3.15;;
17953;SDS011;9102;53.548;9.926;2023-07-22T06:58:21;7.25;;;3.53;;
17953;SDS011;9102;53.548;9.926;2023-07-22T07:00:52;6.05;;;3.08;;
17953;SDS011;9102;53.548;9.926;2023-07-22T07:03:19;10.35;;;4.18;;
17953;SDS011;9102;53.548;9.926;2023-07-22T07:05:53;5.97;;;3.22;;
17953;SDS011;9102;53.548;9.926;2023-07-22T07:08:23;7.68;;;3.50;;
17953;SDS011;9102;53.548;9.926;2023-07-22T07:10:50;4.10;;;2.75;;
17953;SDS011;9102;53.548;9.926;2023-07-22T07:13:17;6.00;;;2.72;;
17953;SDS011;9102;53.548;9.926;2023-07-22T07:15:45;7.15;;;3.05;;
17953;SDS011;9102;53.548;9.926;2023-07-22T07:18:13;5.82;;;2.72;;
17953;SDS011;9102;53.548;9.926;2023-07-22T07:20:40;6.78;;;2.92;;
17953;SDS011;9102;53.548;9.926;2023-07-22T07:23:07;4.80;;;2.42;;
17953;SDS011;9102;53.548;9.926;2023-07-22T07:25:35;6.00;;;2.80;;
17953;SDS011;9102;53.548;9.926;2023-07-22T07:28:03;6.97;;;3.17;;
17953;SDS011;9102;53.548;9.926;2023-07-22T07:30:30;5.45;;;2.90;;
17953;SDS011;9102;53.548;9.926;2023-07-22T07:32:57;6.75;;;2.75;;
17953;SDS011;9102;53.548;9.926;2023-07-22T07:35:24;3.85;;;2.28;;
17953;SDS011;9102;53.548;9.926;2023-07-22T07:37:51;5.15;;;2.30;;
17953;SDS011;9102;53.548;9.926;2023-07-22T07:40:18;5.18;;;2.08;;
17953;SDS011;9102;53.548;9.926;2023-07-22T07:42:47;6.03;;;2.50;;
17953;SDS011;9102;53.548;9.926;2023-07-22T07:45:13;8.00;;;2.42;;
17953;SDS011;9102;53.548;9.926;2023-07-22T07:47:41;6.57;;;1.92;;
17953;SDS011;9102;53.548;9.926;2023-07-22T07:50:08;5.35;;;2.00;;
17953;SDS011;9102;53.548;9.926;2023-07-22T07:52:35;3.58;;;1.90;;
17953;SDS011;9102;53.548;9.926;2023-07-22T07:55:03;3.70;;;1.70;;
17953;SDS011;9102;53.548;9.926;2023-07-22T07:57:31;5.93;;;1.65;;
17953;SDS011;9102;53.548;9.926;2023-07-22T07:59:59;3.28;;;1.52;;
17953;SDS011;9102;53.548;9.926;2023-07-22T08:02:26;5.78;;;1.80;;
17953;SDS011;9102;53.548;9.926;2023-07-22T08:04:53;3.70;;;1.80;;
17953;SDS011;9102;53.548;9.926;2023-07-22T08:07:20;4.60;;;2.25;;
17953;SDS011;9102;53.548;9.926;2023-07-22T08:09:47;4.63;;;2.03;;
17953;SDS011;9102;53.548;9.926;2023-07-22T08:12:15;5.15;;;1.85;;
17953;SDS011;9102;53.548;9.926;2023-07-22T08:14:42;4.07;;;2.05;;
17953;SDS011;9102;53.548;9.926;2023-07-22T08:17:10;2.30;;;1.50;;
17953;SDS011;9102;53.548;9.926;2023-07-22T08:19:37;7.32;;;1.90;;
17953;SDS011;9102;53.548;9.926;2023-07-22T08:22:04;4.18;;;1.63;;
17953;SDS011;9102;53.548;9.926;2023-07-22T08:24:32;5.32;;;1.52;;
17953;SDS011;9102;53.548;9.926;2023-07-22T08:26:59;4.20;;;1.60;;
17953;SDS011;9102;53.548;9.926;2023-07-22T08:29:25;2.75;;;1.35;;
17953;SDS011;9102;53.548;9.926;2023-07-22T08:31:52;2.70;;;1.20;;
17953;SDS011;9102;53.548;9.926;2023-07-22T08:34:20;1.67;;;1.10;;
17953;SDS011;9102;53.548;9.926;2023-07-22T08:36:47;2.58;;;1.15;;
17953;SDS011;9102;53.548;9.926;2023-07-22T08:39:15;2.47;;;1.00;;
17953;SDS011;9102;53.548;9.926;2023-07-22T08:41:42;1.95;;;1.08;;
17953;SDS011;9102;53.548;9.926;2023-07-22T08:44:14;3.65;;;1.20;;
17953;SDS011;9102;53.548;9.926;2023-07-22T08:46:45;2.55;;;0.80;;
17953;SDS011;9102;53.548;9.926;2023-07-22T08:49:12;4.30;;;0.85;;
17953;SDS011;9102;53.548;9.926;2023-07-22T08:51:42;3.47;;;1.20;;
17953;SDS011;9102;53.548;9.926;2023-07-22T08:54:11;2.70;;;0.80;;
17953;SDS011;9102;53.548;9.926;2023-07-22T08:56:39;4.43;;;1.10;;
17953;SDS011;9102;53.548;9.926;2023-07-22T08:59:06;2.80;;;1.10;;
17953;SDS011;9102;53.548;9.926;2023-07-22T09:01:34;2.70;;;0.80;;
17953;SDS011;9102;53.548;9.926;2023-07-22T09:04:02;3.47;;;1.00;;
17953;SDS011;9102;53.548;9.926;2023-07-22T09:06:29;3.22;;;0.98;;
17953;SDS011;9102;53.548;9.926;2023-07-22T09:08:57;4.00;;;1.25;;
17953;SDS011;9102;53.548;9.926;2023-07-22T09:11:25;4.22;;;1.35;;
17953;SDS011;9102;53.548;9.926;2023-07-22T09:13:54;3.45;;;1.30;;
17953;SDS011;9102;53.548;9.926;2023-07-22T09:16:23;2.30;;;1.17;;
17953;SDS011;9102;53.548;9.926;2023-07-22T09:18:54;2.40;;;1.08;;
17953;SDS011;9102;53.548;9.926;2023-07-22T09:21:21;3.97;;;1.30;;
17953;SDS011;9102;53.548;9.926;2023-07-22T09:23:48;2.10;;;0.85;;
17953;SDS011;9102;53.548;9.926;2023-07-22T09:26:17;2.97;;;1.10;;
17953;SDS011;9102;53.548;9.926;2023-07-22T09:28:52;3.45;;;1.10;;
17953;SDS011;9102;53.548;9.926;2023-07-22T09:31:20;1.77;;;0.90;;
17953;SDS011;9102;53.548;9.926;2023-07-22T09:33:48;2.75;;;1.10;;
17953;SDS011;9102;53.548;9.926;2023-07-22T09:36:15;4.18;;;1.27;;
17953;SDS011;9102;53.548;9.926;2023-07-22T09:38:43;2.75;;;1.60;;
17953;SDS011;9102;53.548;9.926;2023-07-22T09:41:09;2.67;;;1.17;;
17953;SDS011;9102;53.548;9.926;2023-07-22T09:43:39;4.35;;;1.10;;
17953;SDS011;9102;53.548;9.926;2023-07-22T09:46:07;2.47;;;1.15;;
17953;SDS011;9102;53.548;9.926;2023-07-22T09:48:42;1.83;;;1.05;;
17953;SDS011;9102;53.548;9.926;2023-07-22T09:51:13;2.03;;;1.20;;
17953;SDS011;9102;53.548;9.926;2023-07-22T09:53:44;2.42;;;1.15;;
17953;SDS011;9102;53.548;9.926;2023-07-22T09:56:11;2.90;;;1.10;;
17953;SDS011;9102;53.548;9.926;2023-07-22T09:58:40;3.53;;;1.20;;
17953;SDS011;9102;53.548;9.926;2023-07-22T10:01:12;3.05;;;1.10;;
17953;SDS011;9102;53.548;9.926;2023-07-22T10:03:40;2.55;;;1.08;;
17953;SDS011;9102;53.548;9.926;2023-07-22T10:06:11;2.70;;;1.23;;
17953;SDS011;9102;53.548;9.926;2023-07-22T10:08:40;7.63;;;1.30;;
17953;SDS011;9102;53.548;9.926;2023-07-22T10:11:10;5.22;;;1.38;;
17953;SDS011;9102;53.548;9.926;2023-07-22T10:13:40;2.58;;;1.40;;
17953;SDS011;9102;53.548;9.926;2023-07-22T10:16:07;2.00;;;1.50;;
17953;SDS011;9102;53.548;9.926;2023-07-22T10:18:35;1.92;;;1.20;;
17953;SDS011;9102;53.548;9.926;2023-07-22T10:21:03;1.60;;;1.20;;
17953;SDS011;9102;53.548;9.926;2023-07-22T10:23:31;2.25;;;1.02;;
17953;SDS011;9102;53.548;9.926;2023-07-22T10:25:58;1.58;;;0.77;;
17953;SDS011;9102;53.548;9.926;2023-07-22T10:28:25;2.97;;;0.93;;
17953;SDS011;9102;53.548;9.926;2023-07-22T10:30:54;2.80;;;1.60;;
17953;SDS011;9102;53.548;9.926;2023-07-22T10:33:22;1.70;;;1.10;;
17953;SDS011;9102;53.548;9.926;2023-07-22T10:36:03;2.35;;;1.05;;
17953;SDS011;9102;53.548;9.926;2023-07-22T10:38:31;1.50;;;1.00;;
17953;SDS011;9102;53.548;9.926;2023-07-22T10:40:59;2.22;;;1.35;;
17953;SDS011;9102;53.548;9.926;2023-07-22T10:43:27;1.88;;;1.20;;
17953;SDS011;9102;53.548;9.926;2023-07-22T10:45:59;3.08;;;1.20;;
17953;SDS011;9102;53.548;9.926;2023-07-22T10:48:34;1.90;;;1.20;;
17953;SDS011;9102;53.548;9.926;2023-07-22T10:51:04;2.03;;;1.38;;
17953;SDS011;9102;53.548;9.926;2023-07-22T10:53:32;3.35;;;1.40;;
17953;SDS011;9102;53.548;9.926;2023-07-22T10:58:56;2.95;;;1.30;;
17953;SDS011;9102;53.548;9.926;2023-07-22T11:01:31;2.10;;;1.50;;
17953;SDS011;9102;53.548;9.926;2023-07-22T11:04:07;4.88;;;1.92;;
17953;SDS011;9102;53.548;9.926;2023-07-22T11:06:36;5.20;;;2.00;;
17953;SDS011;9102;53.548;9.926;2023-07-22T11:09:04;2.72;;;1.70;;
17953;SDS011;9102;53.548;9.926;2023-07-22T11:11:37;4.05;;;1.92;;
17953;SDS011;9102;53.548;9.926;2023-07-22T11:14:14;2.22;;;1.65;;
17953;SDS011;9102;53.548;9.926;2023-07-22T11:16:44;5.65;;;1.83;;
17953;SDS011;9102;53.548;9.926;2023-07-22T11:19:12;6.63;;;2.35;;
17953;SDS011;9102;53.548;9.926;2023-07-22T11:21:40;4.40;;;2.03;;
17953;SDS011;9102;53.548;9.926;2023-07-22T11:24:07;3.85;;;2.20;;
17953;SDS011;9102;53.548;9.926;2023-07-22T11:26:34;4.22;;;2.22;;
17953;SDS011;9102;53.548;9.926;2023-07-22T11:29:02;3.47;;;2.25;;
17953;SDS011;9102;53.548;9.926;2023-07-22T11:31:32;3.42;;;2.10;;
17953;SDS011;9102;53.548;9.926;2023-07-22T11:34:03;2.92;;;2.25;;
17953;SDS011;9102;53.548;9.926;2023-07-22T11:36:30;5.28;;;2.60;;
17953;SDS011;9102;53.548;9.926;2023-07-22T11:39:01;4.53;;;2.22;;
17953;SDS011;9102;53.548;9.926;2023-07-22T11:41:29;3.33;;;2.45;;
17953;SDS011;9102;53.548;9.926;2023-07-22T11:43:56;7.55;;;2.63;;
17953;SDS011;9102;53.548;9.926;2023-07-22T11:46:24;3.75;;;2.40;;
17953;SDS011;9102;53.548;9.926;2023-07-22T11:48:51;5.47;;;2.58;;
17953;SDS011;9102;53.548;9.926;2023-07-22T11:51:20;5.10;;;2.90;;
17953;SDS011;9102;53.548;9.926;2023-07-22T11:53:49;3.85;;;2.72;;
17953;SDS011;9102;53.548;9.926;2023-07-22T11:56:17;3.65;;;2.55;;
17953;SDS011;9102;53.548;9.926;2023-07-22T11:58:48;4.13;;;2.70;;
17953;SDS011;9102;53.548;9.926;2023-07-22T12:01:16;4.25;;;2.47;;
17953;SDS011;9102;53.548;9.926;2023-07-22T12:03:43;4.55;;;2.55;;
17953;SDS011;9102;53.548;9.926;2023-07-22T12:06:10;4.97;;;3.10;;
17953;SDS011;9102;53.548;9.926;2023-07-22T12:08:43;4.40;;;2.90;;
17953;SDS011;9102;53.548;9.926;2023-07-22T12:11:18;6.18;;;3.50;;
17953;SDS011;9102;53.548;9.926;2023-07-22T12:13:45;4.82;;;3.58;;
17953;SDS011;9102;53.548;9.926;2023-07-22T12:16:20;5.85;;;3.50;;
17953;SDS011;9102;53.548;9.926;2023-07-22T12:18:48;8.75;;;3.42;;
17953;SDS011;9102;53.548;9.926;2023-07-22T12:21:15;5.05;;;3.25;;
17953;SDS011;9102;53.548;9.926;2023-07-22T12:23:45;5.20;;;3.53;;
17953;SDS011;9102;53.548;9.926;2023-07-22T12:26:12;4.18;;;3.30;;
17953;SDS011;9102;53.548;9.926;2023-07-22T12:28:39;6.35;;;3.60;;
17953;SDS011;9102;53.548;9.926;2023-07-22T12:31:06;6.60;;;3.78;;
17953;SDS011;9102;53.548;9.926;2023-07-22T12:33:34;7.30;;;4.13;;
17953;SDS011;9102;53.548;9.926;2023-07-22T12:36:01;5.82;;;3.67;;
17953;SDS011;9102;53.548;9.926;2023-07-22T12:38:28;5.82;;;3.75;;
17953;SDS011;9102;53.548;9.926;2023-07-22T12:40:56;7.32;;;3.55;;
17953;SDS011;9102;53.548;9.926;2023-07-22T12:43:23;6.80;;;3.90;;
17953;SDS011;9102;53.548;9.926;2023-07-22T12:45:50;5.07;;;3.65;;
17953;SDS011;9102;53.548;9.926;2023-07-22T12:48:17;6.97;;;4.35;;
17953;SDS011;9102;53.548;9.926;2023-07-22T12:50:44;5.82;;;4.03;;
17953;SDS011;9102;53.548;9.926;2023-07-22T12:53:12;5.47;;;4.00;;
17953;SDS011;9102;53.548;9.926;2023-07-22T12:55:39;6.07;;;4.05;;
17953;SDS011;9102;53.548;9.926;2023-07-22T12:58:07;6.93;;;4.20;;
17953;SDS011;9102;53.548;9.926;2023-07-22T13:00:34;12.32;;;5.22;;
17953;SDS011;9102;53.548;9.926;2023-07-22T13:03:01;6.75;;;4.68;;
17953;SDS011;9102;53.548;9.926;2023-07-22T13:05:28;7.78;;;4.78;;
17953;SDS011;9102;53.548;9.926;2023-07-22T13:07:55;7.45;;;4.88;;
17953;SDS011;9102;53.548;9.926;2023-07-22T13:10:23;8.93;;;5.95;;
17953;SDS011;9102;53.548;9.926;2023-07-22T13:12:50;9.77;;;5.63;;
17953;SDS011;9102;53.548;9.926;2023-07-22T13:15:19;8.77;;;5.20;;
17953;SDS011;9102;53.548;9.926;2023-07-22T13:17:46;9.07;;;5.90;;
17953;SDS011;9102;53.548;9.926;2023-07-22T13:20:13;11.77;;;5.70;;
17953;SDS011;9102;53.548;9.926;2023-07-22T13:22:40;12.65;;;7.30;;
17953;SDS011;9102;53.548;9.926;2023-07-22T13:25:07;15.07;;;7.43;;
17953;SDS011;9102;53.548;9.926;2023-07-22T13:27:35;14.57;;;7.22;;
17953;SDS011;9102;53.548;9.926;2023-07-22T13:30:06;15.05;;;7.28;;
17953;SDS011;9102;53.548;9.926;2023-07-22T13:32:35;19.50;;;9.43;;
17953;SDS011;9102;53.548;9.926;2023-07-22T13:35:02;19.88;;;9.02;;
17953;SDS011;9102;53.548;9.926;2023-07-22T13:37:29;14.98;;;9.02;;
17953;SDS011;9102;53.548;9.926;2023-07-22T13:39:58;13.63;;;8.07;;
17953;SDS011;9102;53.548;9.926;2023-07-22T13:42:25;14.70;;;8.45;;
17953;SDS011;9102;53.548;9.926;2023-07-22T13:44:52;13.52;;;8.05;;
17953;SDS011;9102;53.548;9.926;2023-07-22T13:47:20;15.25;;;8.38;;
17953;SDS011;9102;53.548;9.926;2023-07-22T13:49:50;14.07;;;8.38;;
17953;SDS011;9102;53.548;9.926;2023-07-22T13:52:17;16.00;;;8.60;;
17953;SDS011;9102;53.548;9.926;2023-07-22T13:54:44;15.93;;;8.90;;
17953;SDS011;9102;53.548;9.926;2023-07-22T13:57:11;15.30;;;8.77;;
17953;SDS011;9102;53.548;9.926;2023-07-22T13:59:39;12.77;;;8.23;;
17953;SDS011;9102;53.548;9.926;2023-07-22T14:02:06;12.93;;;7.30;;
17953;SDS011;9102;53.548;9.926;2023-07-22T14:04:32;12.68;;;7.50;;
17953;SDS011;9102;53.548;9.926;2023-07-22T14:07:00;12.70;;;7.90;;
17953;SDS011;9102;53.548;9.926;2023-07-22T14:09:27;12.57;;;7.57;;
17953;SDS011;9102;53.548;9.926;2023-07-22T14:11:54;12.43;;;6.97;;
17953;SDS011;9102;53.548;9.926;2023-07-22T14:14:21;9.95;;;7.18;;
17953;SDS011;9102;53.548;9.926;2023-07-22T14:16:53;10.95;;;6.53;;
17953;SDS011;9102;53.548;9.926;2023-07-22T14:19:20;6.53;;;5.18;;
17953;SDS011;9102;53.548;9.926;2023-07-22T14:21:47;13.10;;;8.00;;
17953;SDS011;9102;53.548;9.926;2023-07-22T14:24:16;9.70;;;6.30;;
17953;SDS011;9102;53.548;9.926;2023-07-22T14:26:43;8.73;;;6.22;;
17953;SDS011;9102;53.548;9.926;2023-07-22T14:29:10;8.75;;;5.65;;
17953;SDS011;9102;53.548;9.926;2023-07-22T14:31:37;9.35;;;5.93;;
17953;SDS011;9102;53.548;9.926;2023-07-22T14:34:03;9.32;;;5.30;;
17953;SDS011;9102;53.548;9.926;2023-07-22T14:36:30;12.02;;;7.00;;
17953;SDS011;9102;53.548;9.926;2023-07-22T14:38:57;9.38;;;5.53;;
17953;SDS011;9102;53.548;9.926;2023-07-22T14:41:25;9.10;;;6.32;;
17953;SDS011;9102;53.548;9.926;2023-07-22T14:43:52;9.00;;;5.65;;
17953;SDS011;9102;53.548;9.926;2023-07-22T14:46:19;6.70;;;4.85;;
17953;SDS011;9102;53.548;9.926;2023-07-22T14:48:46;9.13;;;5.50;;
17953;SDS011;9102;53.548;9.926;2023-07-22T14:51:12;8.82;;;5.15;;
17953;SDS011;9102;53.548;9.926;2023-07-22T14:53:39;7.45;;;5.07;;
17953;SDS011;9102;53.548;9.926;2023-07-22T14:56:06;7.55;;;4.65;;
17953;SDS011;9102;53.548;9.926;2023-07-22T14:58:35;7.70;;;4.85;;
17953;SDS011;9102;53.548;9.926;2023-07-22T15:01:02;7.70;;;4.60;;